METAR Data
IDs: Format: Raw Decoded Include TAF

Data at: 0313 UTC 19 Oct 2021

KLIT 190253Z 10003KT 10SM CLR 12/08 A3013 RMK AO2 SLP206 T01170078 52011
KLIT 190153Z 17004KT 10SM CLR 13/08 A3012 RMK AO2 SLP203 T01280078
KLIT 190053Z 14003KT 10SM CLR 14/08 A3011 RMK AO2 SLP199 T01390078
KLIT 182353Z 13005KT 10SM FEW200 16/07 A3010 RMK AO2 SLP195 FU VSB DSNT SE T01610067 10222 20161 56010
KLIT 182253Z 11006KT 10SM FEW200 20/06 A3010 RMK AO2 SLP195 FU VSB DSNT SE T02000056
KLIT 182153Z COR 17004KT 10SM SCT200 22/05 A3012 RMK AO2 SLP199 T02170050
KLIT 182053Z 00000KT 10SM SCT200 22/05 A3013 RMK AO2 SLP205 T02170050 56026
KLIT 181953Z COR 0000 10SM FEW150 22/04 A3015 RMK AO2 SLP210 T02170044
KLIT 181853Z 13007KT 10SM SCT150 22/05 A3017 RMK AO2 SLP219 T02170050
KLIT 181753Z VRB04KT 10SM SCT150 SCT250 21/06 A3021 RMK AO2 SLP231 T02060056 10206 20072 58014
KLIT 181653Z 17005KT 10SM SCT150 SCT250 19/06 A3024 RMK AO2 SLP241 T01940061
KLIT 181553Z VRB04KT 10SM FEW150 BKN250 18/08 A3025 RMK AO2 SLP245 T01830078
KLIT 181453Z 00000KT 10SM FEW150 BKN250 13/08 A3025 RMK AO2 SLP247 T01330083 53013
KLIT 181353Z 00000KT 10SM FEW150 BKN250 12/09 A3024 RMK AO2 SLP243 T01170089
KLIT 181253Z 00000KT 10SM SCT250 09/07 A3022 RMK AO2 SLP236 T00890072
KLIT 181153Z 00000KT 10SM BKN250 08/07 A3021 RMK AO2 SLP233 T00780067 10100 20072 51007
KLIT 181053Z 00000KT 10SM BKN250 08/07 A3021 RMK AO2 SLP232 T00780067
KLIT 180953Z 00000KT 10SM SCT250 07/07 A3020 RMK AO2 SLP227 T00720067
KLIT 180853Z 00000KT 10SM SCT250 08/07 A3019 RMK AO2 SLP225 T00830072 56007
KLIT 180753Z 00000KT 10SM SCT250 08/07 A3020 RMK AO2 SLP227 T00830072
KLIT 180653Z 00000KT 10SM FEW250 09/07 A3021 RMK AO2 SLP230 T00890072
KLIT 180553Z 24003KT 10SM SCT250 10/08 A3021 RMK AO2 SLP233 T01000083 10161 20094 402280067 58003
KLIT 180453Z 00000KT 10SM FEW250 10/08 A3022 RMK AO2 SLP235 T01000083
KLIT 180353Z 00000KT 10SM FEW250 10/08 A3023 RMK AO2 SLP238 T01000083
KLIT 180253Z 00000KT 10SM SCT250 11/08 A3022 RMK AO2 SLP237 T01110083 52003
KLIT 180153Z 00000KT 10SM SCT250 12/08 A3022 RMK AO2 SLP235 T01220078
KLIT 180053Z 00000KT 10SM SCT250 13/09 A3022 RMK AO2 SLP235 T01280089
KLIT 172353Z 00000KT 10SM FEW250 16/08 A3021 RMK AO2 SLP233 T01610078 10228 20161 56004
KLIT 172253Z 00000KT 10SM FEW250 21/04 A3021 RMK AO2 SLP233 T02110039
KLIT 172153Z 24004KT 10SM FEW250 22/04 A3022 RMK AO2 SLP234 T02170039
KLIT 172053Z 01004KT 10SM FEW250 23/04 A3023 RMK AO2 SLP237 T02280039 56026
KLIT 171953Z VRB04KT 10SM CLR 22/03 A3025 RMK AO2 SLP243 T02170028
KLIT 171853Z VRB03KT 10SM CLR 21/03 A3027 RMK AO2 SLP253 T02110028
KLIT 171753Z 00000KT 10SM CLR 21/03 A3031 RMK AO2 SLP264 T02060028 10211 20072 58009
KLIT 171653Z VRB03KT 10SM CLR 19/03 A3033 RMK AO2 SLP273 T01940033
KLIT 171553Z 00000KT 10SM CLR 18/06 A3034 RMK AO2 SLP275 T01830056